Time;durP1;ratioP1;P1;durP2;ratioP2;P2;SDS_P1;SDS_P2;PMS_P1;PMS_P2;Temp;Humidity;BMP_temperature;BMP_pressure;BME280_temperature;BME280_humidity;BME280_pressure;Samples;Min_cycle;Max_cycle;Signal;HPM_P1;HPM_P2
2022/07/06 03:02:48;;;;;;;0.70;0.50;;;20.10;60.60;;;;;;5044740;23;20513;-76
2022/07/06 03:05:15;;;;;;;0.77;0.70;;;20.00;61.20;;;;;;4955548;29;20494;-76
2022/07/06 03:07:41;;;;;;;0.80;0.70;;;19.90;61.50;;;;;;4956520;29;20530;-76
2022/07/06 03:10:09;;;;;;;1.30;0.67;;;19.90;61.50;;;;;;4955483;29;20450;-76
2022/07/06 03:12:35;;;;;;;0.70;0.60;;;19.90;61.60;;;;;;4955414;29;20474;-76
2022/07/06 03:15:02;;;;;;;0.80;0.70;;;20.00;61.60;;;;;;4955424;29;20501;-75
2022/07/06 03:17:29;;;;;;;1.00;0.70;;;19.90;61.80;;;;;;4956605;29;20896;-76
2022/07/06 03:19:57;;;;;;;0.70;0.67;;;19.90;61.80;;;;;;4955366;29;20458;-76
2022/07/06 03:22:23;;;;;;;0.70;0.60;;;19.80;62.00;;;;;;4955283;29;20466;-75
2022/07/06 03:24:50;;;;;;;0.87;0.70;;;19.70;62.40;;;;;;4955308;29;20450;-75
2022/07/06 03:27:17;;;;;;;0.70;0.70;;;19.80;62.20;;;;;;4955255;29;20486;-76
2022/07/06 03:29:43;;;;;;;0.90;0.67;;;19.70;62.40;;;;;;4955274;29;20507;-76
2022/07/06 03:32:10;;;;;;;0.70;0.70;;;19.70;62.50;;;;;;4955250;28;20566;-76
2022/07/06 03:34:36;;;;;;;0.80;0.70;;;19.60;62.90;;;;;;4955266;29;20510;-76
2022/07/06 03:37:05;;;;;;;0.70;0.60;;;19.60;62.90;;;;;;4955235;29;20443;-76
2022/07/06 03:39:32;;;;;;;1.20;0.77;;;19.70;62.80;;;;;;4954915;29;20455;-76
2022/07/06 03:41:59;;;;;;;0.70;0.60;;;19.70;62.80;;;;;;4955096;29;20475;-76
2022/07/06 03:44:25;;;;;;;0.80;0.63;;;19.70;62.70;;;;;;4955133;29;20530;-76
2022/07/06 03:46:55;;;;;;;0.70;0.60;;;19.70;62.80;;;;;;4955115;29;20889;-76
2022/07/06 03:49:21;;;;;;;0.80;0.70;;;19.70;62.90;;;;;;4955117;29;20451;-75
2022/07/06 03:51:48;;;;;;;0.70;0.60;;;19.60;63.00;;;;;;4955032;29;20525;-76
2022/07/06 03:54:16;;;;;;;0.80;0.60;;;19.70;63.10;;;;;;4955079;29;20544;-76
2022/07/06 03:56:43;;;;;;;0.70;0.70;;;19.70;62.80;;;;;;4955071;29;20447;-76
2022/07/06 03:59:09;;;;;;;1.00;0.70;;;19.80;62.70;;;;;;4954714;28;20822;-76
2022/07/06 04:01:36;;;;;;;0.70;0.50;;;19.80;62.80;;;;;;4958492;29;20904;-76
2022/07/06 04:04:03;;;;;;;0.70;0.70;;;19.80;62.70;;;;;;4958460;29;20875;-76
2022/07/06 04:06:30;;;;;;;0.70;0.63;;;19.90;62.60;;;;;;4958353;29;21009;-75
2022/07/06 04:08:56;;;;;;;0.80;0.60;;;19.90;62.50;;;;;;4958665;29;20451;-75
2022/07/06 04:11:24;;;;;;;0.90;0.70;;;20.00;62.50;;;;;;4958271;29;20986;-75
2022/07/06 04:13:51;;;;;;;0.90;0.80;;;20.00;62.30;;;;;;4958291;29;20950;-76
2022/07/06 04:16:18;;;;;;;0.70;0.60;;;20.00;62.50;;;;;;4958529;29;20517;-75
2022/07/06 04:18:45;;;;;;;0.80;0.70;;;20.00;62.60;;;;;;4958503;29;20641;-75
2022/07/06 04:21:11;;;;;;;0.70;0.60;;;19.90;62.90;;;;;;4958384;29;20466;-75
2022/07/06 04:23:38;;;;;;;1.00;0.80;;;19.90;63.00;;;;;;4958412;29;20513;-75
2022/07/06 04:26:05;;;;;;;0.70;0.60;;;19.90;63.30;;;;;;4957950;29;20947;-75
2022/07/06 04:28:33;;;;;;;0.80;0.70;;;19.70;63.60;;;;;;4958341;29;20453;-75
2022/07/06 04:30:59;;;;;;;0.70;0.57;;;19.70;63.90;;;;;;4958214;29;20510;-75
2022/07/06 04:33:26;;;;;;;0.70;0.70;;;19.80;64.10;;;;;;4958172;29;20509;-75
2022/07/06 04:35:53;;;;;;;0.97;0.80;;;19.80;64.00;;;;;;4958183;29;20450;-75
2022/07/06 04:38:20;;;;;;;1.00;0.73;;;19.80;64.10;;;;;;4958154;29;20451;-75
2022/07/06 04:40:47;;;;;;;0.70;0.60;;;19.80;64.40;;;;;;4957738;29;21050;-75
2022/07/06 04:43:13;;;;;;;0.70;0.60;;;19.80;64.30;;;;;;4958144;28;20447;-75
2022/07/06 04:45:41;;;;;;;1.33;0.70;;;19.80;64.50;;;;;;4958029;29;20450;-75
2022/07/06 04:48:08;;;;;;;0.70;0.70;;;19.80;64.70;;;;;;4957903;29;20482;-75
2022/07/06 04:50:35;;;;;;;0.80;0.70;;;19.70;65.00;;;;;;4957879;29;20545;-75
2022/07/06 04:53:02;;;;;;;0.70;0.60;;;19.70;65.10;;;;;;4957668;28;20958;-75
2022/07/06 04:55:29;;;;;;;0.70;0.70;;;19.70;65.00;;;;;;4957900;29;20462;-76
2022/07/06 04:57:55;;;;;;;0.70;0.70;;;19.70;65.10;;;;;;4957850;29;20446;-75
2022/07/06 05:00:22;;;;;;;1.33;0.90;;;19.60;65.50;;;;;;4957848;28;20886;-75
2022/07/06 05:02:50;;;;;;;0.70;0.60;;;19.60;65.60;;;;;;4957433;29;20514;-75
2022/07/06 05:05:17;;;;;;;0.87;0.80;;;19.70;65.60;;;;;;4958875;29;20454;-75
2022/07/06 05:07:44;;;;;;;0.70;0.70;;;19.70;65.40;;;;;;4959739;29;20506;-75
2022/07/06 05:10:12;;;;;;;1.30;0.70;;;19.70;65.60;;;;;;4958478;28;20458;-75
2022/07/06 05:12:39;;;;;;;0.70;0.70;;;19.60;65.70;;;;;;4957592;29;20986;-75
2022/07/06 05:15:07;;;;;;;0.80;0.70;;;19.70;65.60;;;;;;4958547;29;20517;-75
2022/07/06 05:17:34;;;;;;;1.00;0.70;;;19.80;65.60;;;;;;4958647;28;20454;-74
2022/07/06 05:20:02;;;;;;;0.80;0.70;;;19.90;65.40;;;;;;4957489;29;20525;-75
2022/07/06 05:22:29;;;;;;;0.70;0.70;;;19.80;65.60;;;;;;4957332;29;20530;-75
2022/07/06 05:24:56;;;;;;;1.00;0.80;;;19.80;65.80;;;;;;4957379;29;20514;-75
2022/07/06 05:27:22;;;;;;;0.70;0.70;;;19.80;65.90;;;;;;4957214;29;20483;-74
2022/07/06 05:29:49;;;;;;;0.70;0.70;;;19.80;65.90;;;;;;4957334;29;20451;-74
2022/07/06 05:32:16;;;;;;;0.90;0.77;;;19.70;65.90;;;;;;4958280;29;20529;-75
2022/07/06 05:34:42;;;;;;;0.77;0.60;;;19.70;65.90;;;;;;4958780;29;20510;-75
2022/07/06 05:37:10;;;;;;;0.80;0.80;;;19.70;66.30;;;;;;4958528;29;20479;-74
2022/07/06 05:39:38;;;;;;;0.87;0.73;;;19.90;65.70;;;;;;4957019;29;20447;-75
2022/07/06 05:42:05;;;;;;;0.70;0.67;;;20.10;65.80;;;;;;4956992;28;20479;-75
2022/07/06 05:44:32;;;;;;;1.27;0.70;;;20.20;65.20;;;;;;4957006;28;20451;-74
2022/07/06 05:50:11;;;;;;;0.70;0.70;;;20.40;64.80;;;;;;4956816;29;20483;-75
2022/07/06 05:52:31;;;;;;;0.70;0.60;;;20.50;64.50;;;;;;4956515;29;20461;-75
2022/07/06 05:54:57;;;;;;;0.70;0.60;;;20.60;64.20;;;;;;4956765;29;20510;-75
2022/07/06 05:57:24;;;;;;;0.80;0.70;;;20.70;63.30;;;;;;4956706;29;20447;-74
2022/07/06 05:59:51;;;;;;;0.70;0.70;;;20.90;63.10;;;;;;4956628;29;20518;-75
2022/07/06 06:02:18;;;;;;;0.83;0.70;;;21.10;63.50;;;;;;4956162;29;20495;-75
2022/07/06 06:04:45;;;;;;;0.70;0.60;;;21.20;62.60;;;;;;4956592;29;20446;-75
2022/07/06 06:07:11;;;;;;;0.80;0.67;;;21.30;61.80;;;;;;4956452;29;20483;-74
2022/07/06 06:09:39;;;;;;;0.70;0.60;;;21.50;61.30;;;;;;4956449;29;20506;-75
2022/07/06 06:12:07;;;;;;;0.70;0.60;;;21.70;60.90;;;;;;4956440;29;20553;-75
2022/07/06 06:14:33;;;;;;;0.70;0.60;;;21.90;60.80;;;;;;4957431;29;20457;-75
2022/07/06 06:17:00;;;;;;;0.80;0.70;;;22.00;60.10;;;;;;4956305;29;20518;-75
2022/07/06 06:19:27;;;;;;;0.70;0.70;;;22.10;59.70;;;;;;4955939;29;20891;-75
2022/07/06 06:21:53;;;;;;;0.77;0.70;;;22.00;59.60;;;;;;4956047;28;20482;-73
2022/07/06 06:24:20;;;;;;;0.80;0.70;;;22.00;60.20;;;;;;4955705;29;20947;-73
2022/07/06 06:26:48;;;;;;;0.80;0.60;;;22.20;60.20;;;;;;4956181;29;20577;-72
2022/07/06 06:29:15;;;;;;;0.77;0.63;;;22.50;59.80;;;;;;4956053;29;20601;-71
2022/07/06 06:31:41;;;;;;;0.80;0.77;;;22.80;58.80;;;;;;4956001;29;20470;-72
2022/07/06 06:34:08;;;;;;;0.70;0.60;;;23.10;58.80;;;;;;4955972;29;20455;-72
2022/07/06 06:36:35;;;;;;;1.00;0.70;;;23.40;57.40;;;;;;4955681;29;21054;-73
2022/07/06 06:39:02;;;;;;;0.70;0.60;;;23.60;56.40;;;;;;4955923;29;20454;-73
2022/07/06 06:41:28;;;;;;;0.70;0.60;;;23.70;55.90;;;;;;4955863;28;20507;-72
2022/07/06 06:43:56;;;;;;;0.90;0.73;;;23.80;55.00;;;;;;4955748;29;20514;-73
2022/07/06 06:46:23;;;;;;;0.83;0.60;;;23.90;55.00;;;;;;4956046;29;20435;-73
2022/07/06 06:48:50;;;;;;;0.77;0.60;;;24.00;54.50;;;;;;4955773;29;20546;-73
2022/07/06 06:51:16;;;;;;;1.33;0.97;;;24.30;55.00;;;;;;4955665;29;20550;-73
2022/07/06 06:53:43;;;;;;;0.70;0.60;;;24.40;54.10;;;;;;4955707;29;20455;-70
2022/07/06 06:56:10;;;;;;;0.70;0.70;;;24.60;54.40;;;;;;4955676;29;20572;-70
2022/07/06 06:58:36;;;;;;;1.20;0.70;;;24.70;55.00;;;;;;4955708;29;20447;-70
2022/07/06 07:01:04;;;;;;;1.40;0.70;;;24.70;54.30;;;;;;4955447;29;20479;-73
2022/07/06 07:03:31;;;;;;;0.80;0.60;;;24.70;53.60;;;;;;4955641;28;20529;-72
2022/07/06 07:05:58;;;;;;;0.80;0.67;;;24.60;53.90;;;;;;4955546;29;20455;-72
2022/07/06 07:08:25;;;;;;;0.70;0.60;;;24.60;54.00;;;;;;4955158;29;21045;-72
2022/07/06 07:10:52;;;;;;;0.70;0.57;;;24.50;53.70;;;;;;4955413;29;20541;-72
2022/07/06 07:13:19;;;;;;;0.70;0.60;;;24.30;54.40;;;;;;4955480;29;20502;-72
2022/07/06 07:15:45;;;;;;;0.70;0.60;;;24.30;54.70;;;;;;4955509;28;20546;-72
2022/07/06 07:18:13;;;;;;;0.80;0.67;;;24.40;54.20;;;;;;4955385;29;20450;-71
2022/07/06 07:20:40;;;;;;;0.70;0.67;;;24.60;54.80;;;;;;4954949;29;20808;-73
2022/07/06 07:23:07;;;;;;;0.70;0.63;;;24.80;54.30;;;;;;4955056;29;20592;-73
2022/07/06 07:25:34;;;;;;;0.70;0.60;;;24.80;53.90;;;;;;4955271;29;20521;-72
2022/07/06 07:28:00;;;;;;;0.80;0.70;;;24.80;53.50;;;;;;4955269;29;20506;-72
2022/07/06 07:30:27;;;;;;;0.80;0.70;;;24.60;53.60;;;;;;4955131;29;20455;-72
2022/07/06 07:32:55;;;;;;;0.90;0.60;;;24.70;53.90;;;;;;4955299;29;20498;-72
2022/07/06 07:35:24;;;;;;;0.70;0.60;;;24.80;53.40;;;;;;4957294;28;20450;-73
2022/07/06 07:37:50;;;;;;;1.20;0.70;;;24.90;53.70;;;;;;4959275;28;20533;-73
2022/07/06 07:40:17;;;;;;;0.70;0.60;;;25.00;53.40;;;;;;4959172;29;20447;-73
2022/07/06 07:42:45;;;;;;;0.80;0.63;;;25.00;53.00;;;;;;4959068;29;20474;-74
2022/07/06 07:45:12;;;;;;;0.80;0.60;;;25.10;53.70;;;;;;4959040;29;20451;-73
2022/07/06 07:47:38;;;;;;;0.67;0.50;;;24.80;54.50;;;;;;4959715;29;20486;-73
2022/07/06 07:50:06;;;;;;;1.00;0.60;;;25.00;53.70;;;;;;4959011;29;20506;-72
2022/07/06 07:52:35;;;;;;;0.90;0.77;;;25.00;53.60;;;;;;4958891;28;20529;-75
2022/07/06 07:55:01;;;;;;;0.90;0.70;;;24.90;53.20;;;;;;4958896;29;20454;-75
2022/07/06 07:57:28;;;;;;;0.70;0.60;;;25.10;55.30;;;;;;4959579;29;20474;-76
2022/07/06 07:59:55;;;;;;;0.70;0.60;;;25.20;53.00;;;;;;4959917;29;20451;-75
2022/07/06 08:02:21;;;;;;;0.83;0.70;;;24.60;54.60;;;;;;4958860;29;20486;-75
2022/07/06 08:04:48;;;;;;;1.57;0.70;;;24.70;54.70;;;;;;4959149;29;20450;-75
2022/07/06 08:07:15;;;;;;;0.70;0.60;;;24.90;52.40;;;;;;4959294;29;20455;-74
2022/07/06 08:09:43;;;;;;;0.90;0.60;;;25.10;52.50;;;;;;4959125;29;20450;-75
2022/07/06 08:12:10;;;;;;;0.70;0.60;;;25.00;53.10;;;;;;4959142;29;20537;-75
2022/07/06 08:14:37;;;;;;;0.70;0.70;;;25.00;53.20;;;;;;4959320;29;20500;-74
2022/07/06 08:17:04;;;;;;;0.70;0.60;;;25.00;52.70;;;;;;4959160;29;20821;-75
2022/07/06 08:19:31;;;;;;;0.70;0.50;;;24.80;51.70;;;;;;4959124;28;20905;-75
2022/07/06 08:21:58;;;;;;;0.70;0.60;;;24.70;53.90;;;;;;4959076;29;20533;-75
2022/07/06 08:24:24;;;;;;;0.70;0.60;;;24.70;53.30;;;;;;4958980;29;21005;-75
2022/07/06 08:26:52;;;;;;;0.70;0.60;;;24.80;52.80;;;;;;4958164;29;20458;-75
2022/07/06 08:29:19;;;;;;;0.80;0.63;;;24.90;53.70;;;;;;4959061;29;20541;-75
2022/07/06 08:31:46;;;;;;;2.50;0.70;;;25.10;51.70;;;;;;4959129;29;20924;-75
2022/07/06 08:34:12;;;;;;;0.90;0.70;;;24.90;52.30;;;;;;4959006;29;21001;-75
2022/07/06 08:36:39;;;;;;;0.70;0.60;;;24.80;52.50;;;;;;4958698;29;20458;-75
2022/07/06 08:39:07;;;;;;;0.83;0.60;;;25.00;54.50;;;;;;4959193;29;20458;-75
2022/07/06 08:41:35;;;;;;;0.70;0.70;;;25.00;54.90;;;;;;4958897;29;20474;-74
2022/07/06 08:44:03;;;;;;;0.70;0.70;;;24.90;53.40;;;;;;4959600;29;20526;-75
2022/07/06 08:46:30;;;;;;;0.90;0.70;;;25.00;53.30;;;;;;4957924;28;20946;-75
2022/07/06 08:48:57;;;;;;;0.70;0.60;;;25.30;53.60;;;;;;4957908;29;20882;-75
2022/07/06 08:51:25;;;;;;;0.80;0.60;;;25.30;53.90;;;;;;4958049;29;20561;-75
2022/07/06 08:53:54;;;;;;;1.20;0.70;;;25.40;52.30;;;;;;4958019;29;20505;-76
2022/07/06 08:56:20;;;;;;;0.90;0.60;;;25.60;52.00;;;;;;4958498;29;20454;-75
2022/07/06 08:58:47;;;;;;;0.80;0.63;;;25.50;51.70;;;;;;4958622;29;20501;-75
2022/07/06 09:01:16;;;;;;;0.70;0.60;;;25.50;52.60;;;;;;4957888;29;20607;-75
2022/07/06 09:03:44;;;;;;;0.80;0.70;;;25.60;51.50;;;;;;4958378;29;20498;-75
2022/07/06 09:06:11;;;;;;;0.70;0.70;;;25.50;50.80;;;;;;4957975;29;20947;-75
2022/07/06 09:08:39;;;;;;;0.90;0.60;;;25.10;52.90;;;;;;4958174;28;20537;-74
2022/07/06 09:11:06;;;;;;;1.17;0.67;;;25.30;52.80;;;;;;4958254;29;20479;-75
2022/07/06 09:13:33;;;;;;;0.70;0.57;;;25.30;52.10;;;;;;4957932;29;20462;-75
2022/07/06 09:16:14;;;;;;;0.70;0.60;;;25.40;51.70;;;;;;4958663;29;20450;-75
2022/07/06 09:18:45;;;;;;;0.80;0.70;;;25.60;52.20;;;;;;4957762;29;20855;-75
2022/07/06 09:21:12;;;;;;;1.93;0.80;;;25.60;51.60;;;;;;4957660;29;20479;-75
2022/07/06 09:23:39;;;;;;;1.27;0.80;;;25.70;52.10;;;;;;4958068;29;20490;-75
2022/07/06 09:26:07;;;;;;;0.70;0.60;;;25.60;52.90;;;;;;4957812;29;20505;-75
2022/07/06 09:28:42;;;;;;;0.70;0.60;;;25.70;52.20;;;;;;4957590;29;20537;-76
2022/07/06 09:31:09;;;;;;;0.70;0.60;;;25.80;51.80;;;;;;4957734;28;20553;-75
2022/07/06 09:33:35;;;;;;;0.80;0.70;;;25.90;51.20;;;;;;4957665;29;20490;-76
2022/07/06 09:36:05;;;;;;;1.30;0.70;;;26.00;51.20;;;;;;4957626;29;20509;-76
2022/07/06 09:38:32;;;;;;;0.80;0.60;;;26.00;51.50;;;;;;4957494;29;21059;-75
2022/07/06 09:41:01;;;;;;;2.10;0.70;;;25.70;52.50;;;;;;4957692;29;20471;-75
2022/07/06 09:43:30;;;;;;;0.70;0.60;;;25.80;52.20;;;;;;4958084;29;20454;-75
2022/07/06 09:45:57;;;;;;;0.80;0.60;;;25.90;51.40;;;;;;4957286;29;20493;-75
2022/07/06 09:48:26;;;;;;;0.80;0.60;;;25.80;53.00;;;;;;4957398;29;20534;-75
2022/07/06 09:50:54;;;;;;;0.70;0.60;;;25.70;54.40;;;;;;4956757;29;20882;-75
2022/07/06 09:53:24;;;;;;;0.93;0.70;;;25.70;53.10;;;;;;4957511;29;20451;-75
2022/07/06 09:55:53;;;;;;;0.70;0.60;;;26.00;52.40;;;;;;4957822;29;20526;-74
2022/07/06 09:58:21;;;;;;;1.03;0.90;;;26.20;52.00;;;;;;4956630;28;20506;-75
2022/07/06 10:00:48;;;;;;;0.80;0.70;;;26.00;51.50;;;;;;4956535;29;20467;-75
2022/07/06 10:03:17;;;;;;;0.70;0.60;;;26.20;52.20;;;;;;4956291;29;20862;-75
2022/07/06 10:05:46;;;;;;;1.30;0.60;;;26.40;51.40;;;;;;4956550;29;20446;-76
2022/07/06 10:08:14;;;;;;;0.70;0.60;;;26.40;52.10;;;;;;4956392;28;20986;-75
2022/07/06 10:10:43;;;;;;;0.70;0.60;;;26.30;52.80;;;;;;4956661;29;20451;-75
2022/07/06 10:13:11;;;;;;;0.70;0.60;;;26.50;51.40;;;;;;4957406;29;20455;-75
2022/07/06 10:15:40;;;;;;;0.70;0.70;;;26.50;50.70;;;;;;4958385;29;20525;-74
2022/07/06 10:18:09;;;;;;;0.80;0.80;;;26.70;50.50;;;;;;4957969;29;20451;-74
2022/07/06 10:20:38;;;;;;;0.70;0.63;;;26.50;49.70;;;;;;4957330;29;20462;-74
2022/07/06 10:23:07;;;;;;;0.93;0.73;;;26.00;50.90;;;;;;4957873;29;20451;-74
2022/07/06 10:25:34;;;;;;;0.70;0.60;;;26.10;52.60;;;;;;4956170;29;20446;-74
2022/07/06 10:28:10;;;;;;;1.00;0.70;;;26.10;52.90;;;;;;4956144;28;20447;-74
2022/07/06 10:30:37;;;;;;;0.70;0.70;;;26.00;53.00;;;;;;4956085;29;20470;-74
2022/07/06 10:33:04;;;;;;;0.90;0.70;;;26.10;52.50;;;;;;4955989;29;20502;-74
2022/07/06 10:35:31;;;;;;;0.80;0.60;;;26.00;52.10;;;;;;4956010;29;20459;-73
2022/07/06 10:38:05;;;;;;;0.90;0.60;;;25.90;52.30;;;;;;4955959;29;20451;-73
2022/07/06 10:43:22;;;;;;;0.80;0.70;;;26.40;52.10;;;;;;4956065;29;20906;-73
2022/07/06 10:45:53;;;;;;;0.70;0.60;;;26.70;51.50;;;;;;4955629;29;20451;-73
2022/07/06 10:48:22;;;;;;;0.70;0.60;;;26.80;51.80;;;;;;4955852;28;20518;-74
2022/07/06 10:50:52;;;;;;;0.70;0.57;;;26.60;52.00;;;;;;4955627;29;20524;-74
2022/07/06 10:53:22;;;;;;;0.70;0.70;;;26.60;51.40;;;;;;4955787;29;20459;-73
2022/07/06 10:55:51;;;;;;;0.70;0.63;;;26.30;51.80;;;;;;4955750;29;20438;-75
2022/07/06 10:58:39;;;;;;;0.80;0.80;;;26.00;51.90;;;;;;4955714;29;20447;-70
2022/07/06 11:01:06;;;;;;;0.80;0.73;;;25.90;53.40;;;;;;4955446;28;20907;-70
2022/07/06 11:03:35;;;;;;;0.70;0.60;;;26.00;52.30;;;;;;4955634;29;20466;-70
2022/07/06 11:06:05;;;;;;;0.90;0.80;;;25.80;53.00;;;;;;4955514;29;20550;-70
2022/07/06 11:08:46;;;;;;;0.70;0.60;;;25.70;53.10;;;;;;4955020;28;20982;-70
2022/07/06 11:11:14;;;;;;;1.33;0.60;;;25.80;53.30;;;;;;4955665;29;20466;-71
2022/07/06 11:13:53;;;;;;;1.00;0.63;;;25.70;53.20;;;;;;4955423;29;20451;-70
2022/07/06 11:16:21;;;;;;;0.70;0.67;;;25.80;52.70;;;;;;4955728;29;20518;-69
2022/07/06 11:18:50;;;;;;;0.70;0.60;;;26.00;54.20;;;;;;4955372;29;20503;-69
2022/07/06 11:21:22;;;;;;;0.80;0.70;;;26.30;53.40;;;;;;4955269;29;20470;-71
2022/07/06 11:23:49;;;;;;;1.37;0.73;;;26.50;52.70;;;;;;4955446;29;20498;-70
2022/07/06 11:26:17;;;;;;;0.80;0.63;;;26.40;54.40;;;;;;4955508;29;20447;-72
2022/07/06 11:28:47;;;;;;;0.93;0.70;;;26.70;53.10;;;;;;4955239;29;20482;-70
2022/07/06 11:31:15;;;;;;;0.90;0.80;;;27.00;52.50;;;;;;4955299;28;20893;-70
2022/07/06 11:33:41;;;;;;;1.00;0.80;;;27.00;51.00;;;;;;4955219;29;20510;-70
2022/07/06 11:36:16;;;;;;;0.70;0.70;;;26.90;51.40;;;;;;4955169;29;20451;-69
2022/07/06 11:38:43;;;;;;;1.47;0.80;;;26.60;52.50;;;;;;4955248;29;20501;-69
2022/07/06 11:41:11;;;;;;;0.77;0.77;;;26.50;52.70;;;;;;4955113;29;20502;-69
2022/07/06 11:43:42;;;;;;;1.03;0.70;;;26.40;52.80;;;;;;4955176;29;20482;-69
2022/07/06 11:46:25;;;;;;;0.70;0.60;;;26.30;53.70;;;;;;4955179;29;20458;-70
2022/07/06 11:48:54;;;;;;;1.07;0.67;;;26.40;53.20;;;;;;4955059;29;20475;-70
2022/07/06 11:51:21;;;;;;;0.70;0.60;;;26.60;52.60;;;;;;4954963;29;20474;-70
2022/07/06 11:53:49;;;;;;;0.80;0.70;;;26.80;52.60;;;;;;4955045;29;20450;-70
2022/07/06 11:56:18;;;;;;;0.87;0.80;;;27.00;51.50;;;;;;4955029;29;20455;-70
2022/07/06 11:58:47;;;;;;;1.00;0.70;;;27.20;52.30;;;;;;4955592;29;20446;-71
2022/07/06 12:01:15;;;;;;;1.10;0.80;;;27.30;50.80;;;;;;4954809;29;20581;-70
2022/07/06 12:03:42;;;;;;;1.00;0.70;;;27.10;50.20;;;;;;4955031;29;20542;-71
2022/07/06 12:06:15;;;;;;;0.80;0.80;;;27.00;51.80;;;;;;4955126;29;20451;-70
2022/07/06 12:08:43;;;;;;;0.90;0.80;;;26.90;51.20;;;;;;4954898;29;20530;-69
2022/07/06 12:11:10;;;;;;;1.00;0.80;;;26.90;51.70;;;;;;4954905;29;20557;-71
2022/07/06 12:13:40;;;;;;;0.73;0.70;;;27.10;51.90;;;;;;4954846;29;20447;-70
2022/07/06 12:16:10;;;;;;;0.90;0.60;;;27.20;51.40;;;;;;4954684;29;20450;-70
2022/07/06 12:18:40;;;;;;;0.80;0.60;;;27.30;50.80;;;;;;4954580;29;20986;-70
2022/07/06 12:21:09;;;;;;;0.70;0.67;;;27.10;50.70;;;;;;4955887;28;20981;-70
2022/07/06 12:23:43;;;;;;;0.70;0.60;;;27.10;51.00;;;;;;4958130;29;21030;-70
2022/07/06 12:26:10;;;;;;;0.80;0.60;;;26.70;51.90;;;;;;4958425;29;20447;-70
2022/07/06 12:28:37;;;;;;;1.80;0.60;;;26.50;52.20;;;;;;4958070;29;20939;-70
2022/07/06 12:31:04;;;;;;;0.80;0.70;;;26.50;52.00;;;;;;4959078;29;20466;-70
2022/07/06 12:33:31;;;;;;;0.80;0.70;;;26.30;52.80;;;;;;4958330;29;20446;-70
2022/07/06 12:36:10;;;;;;;0.80;0.80;;;26.00;53.20;;;;;;4958528;29;20446;-70
2022/07/06 12:38:36;;;;;;;0.70;0.60;;;26.20;53.90;;;;;;4958568;28;20974;-69
2022/07/06 12:41:03;;;;;;;0.80;0.67;;;26.30;52.80;;;;;;4958322;29;20471;-70
2022/07/06 12:43:37;;;;;;;0.90;0.70;;;26.40;52.60;;;;;;4958104;29;21013;-70
2022/07/06 12:46:29;;;;;;;0.80;0.70;;;26.60;52.70;;;;;;4958249;29;20454;-70
2022/07/06 12:48:56;;;;;;;0.80;0.70;;;26.70;53.00;;;;;;4958337;28;20479;-70
2022/07/06 12:51:24;;;;;;;0.80;0.60;;;26.60;51.50;;;;;;4958021;29;20475;-70
2022/07/06 12:53:51;;;;;;;0.70;0.60;;;26.50;52.20;;;;;;4958057;29;20865;-70
2022/07/06 12:56:18;;;;;;;0.70;0.60;;;26.50;52.60;;;;;;4957797;29;21005;-70
2022/07/06 12:58:58;;;;;;;0.73;0.60;;;26.40;52.00;;;;;;4957706;28;20872;-70
2022/07/06 13:01:25;;;;;;;0.83;0.60;;;26.50;51.90;;;;;;4957470;29;20478;-70
2022/07/06 13:03:56;;;;;;;0.70;0.60;;;26.30;52.10;;;;;;4957954;29;20447;-70
2022/07/06 13:06:32;;;;;;;1.23;0.70;;;26.40;52.10;;;;;;4957894;29;20534;-70
2022/07/06 13:08:59;;;;;;;0.70;0.67;;;26.10;53.50;;;;;;4957690;29;20486;-70
2022/07/06 13:11:26;;;;;;;0.80;0.70;;;26.00;53.40;;;;;;4958145;29;20890;-70
2022/07/06 13:13:53;;;;;;;0.80;0.80;;;26.20;53.10;;;;;;4957609;29;20503;-70
2022/07/06 13:16:21;;;;;;;0.90;0.60;;;26.30;52.50;;;;;;4957567;29;20455;-70
2022/07/06 13:18:48;;;;;;;0.70;0.60;;;26.30;53.30;;;;;;4957493;29;20526;-71
2022/07/06 13:21:15;;;;;;;0.80;0.70;;;26.30;53.10;;;;;;4957292;29;20517;-70
2022/07/06 13:23:43;;;;;;;0.70;0.60;;;26.40;51.70;;;;;;4957321;29;20510;-69
2022/07/06 13:26:09;;;;;;;0.80;0.60;;;26.20;51.90;;;;;;4957280;29;20459;-70
2022/07/06 13:28:36;;;;;;;0.70;0.60;;;26.30;52.00;;;;;;4956986;29;20867;-70
2022/07/06 13:31:02;;;;;;;0.70;0.60;;;26.30;51.20;;;;;;4956799;29;20495;-70
2022/07/06 13:33:29;;;;;;;0.70;0.70;;;26.20;51.70;;;;;;4955940;28;20482;-70
2022/07/06 13:35:56;;;;;;;0.70;0.50;;;26.10;51.90;;;;;;4956816;29;20994;-70
2022/07/06 13:38:22;;;;;;;0.70;0.53;;;26.00;52.90;;;;;;4957031;29;20451;-70
2022/07/06 13:40:50;;;;;;;0.60;0.50;;;26.10;53.40;;;;;;4956943;29;20459;-70
2022/07/06 13:43:17;;;;;;;1.83;0.60;;;26.20;52.50;;;;;;4957032;29;20465;-70
2022/07/06 13:45:44;;;;;;;0.70;0.67;;;26.40;52.70;;;;;;4956991;29;20455;-71
2022/07/06 13:48:10;;;;;;;0.80;0.60;;;26.60;51.90;;;;;;4956590;29;20454;-70
2022/07/06 13:50:37;;;;;;;0.70;0.60;;;26.50;51.50;;;;;;4956689;29;20482;-69
2022/07/06 13:53:04;;;;;;;1.27;0.70;;;26.40;51.90;;;;;;4956857;29;20454;-70
2022/07/06 13:55:30;;;;;;;0.70;0.70;;;26.50;50.70;;;;;;4956752;29;20458;-70
2022/07/06 13:57:59;;;;;;;1.17;0.60;;;26.60;51.50;;;;;;4956681;29;20442;-70
2022/07/06 14:00:26;;;;;;;0.70;0.60;;;26.80;51.20;;;;;;4956264;29;20955;-70
2022/07/06 14:02:52;;;;;;;0.80;0.60;;;27.00;50.60;;;;;;4956326;29;20467;-70
2022/07/06 14:05:19;;;;;;;0.90;0.70;;;26.90;49.70;;;;;;4956493;29;20454;-70
2022/07/06 14:07:46;;;;;;;0.80;0.60;;;27.00;50.20;;;;;;4956545;28;20446;-70
2022/07/06 14:10:12;;;;;;;1.00;0.80;;;27.20;49.90;;;;;;4956348;29;20494;-70
2022/07/06 14:12:39;;;;;;;0.70;0.60;;;27.40;49.20;;;;;;4956396;29;20503;-70
2022/07/06 14:15:08;;;;;;;0.70;0.60;;;27.50;49.30;;;;;;4956904;29;20451;-70
2022/07/06 14:17:35;;;;;;;0.70;0.60;;;27.60;49.00;;;;;;4956397;28;20451;-70
2022/07/06 14:20:02;;;;;;;1.43;0.70;;;27.50;49.60;;;;;;4956285;29;20446;-70
2022/07/06 14:22:28;;;;;;;0.70;0.70;;;27.60;48.90;;;;;;4956204;29;20482;-70
2022/07/06 14:24:55;;;;;;;0.70;0.70;;;27.60;48.40;;;;;;4956238;29;20447;-71
2022/07/06 14:27:22;;;;;;;0.80;0.80;;;27.80;49.10;;;;;;4956406;29;20455;-70
2022/07/06 14:29:48;;;;;;;1.23;0.60;;;27.70;49.70;;;;;;4956277;29;20479;-69
2022/07/06 14:32:16;;;;;;;0.70;0.60;;;27.30;49.20;;;;;;4956181;29;20478;-70
2022/07/06 14:34:43;;;;;;;0.80;0.70;;;27.40;49.20;;;;;;4956266;29;20482;-71
2022/07/06 14:37:10;;;;;;;1.33;0.60;;;27.60;48.10;;;;;;4956129;29;20446;-70
2022/07/06 14:39:36;;;;;;;0.70;0.60;;;27.60;48.40;;;;;;4955809;29;20938;-69
2022/07/06 14:42:03;;;;;;;0.80;0.60;;;27.70;49.30;;;;;;4955842;28;20534;-69
2022/07/06 14:44:30;;;;;;;0.73;0.50;;;27.70;47.20;;;;;;4955826;28;20498;-70
2022/07/06 14:46:57;;;;;;;0.70;0.60;;;27.50;48.10;;;;;;4955955;29;20486;-70
2022/07/06 14:49:25;;;;;;;0.70;0.70;;;27.50;48.50;;;;;;4955890;29;20450;-71
2022/07/06 14:51:51;;;;;;;0.80;0.70;;;27.50;49.50;;;;;;4955651;29;20994;-70
2022/07/06 14:54:18;;;;;;;1.07;0.60;;;27.60;49.40;;;;;;4955738;29;20451;-69
2022/07/06 14:56:45;;;;;;;0.63;0.57;;;27.60;48.80;;;;;;4955708;29;20454;-74
2022/07/06 14:59:11;;;;;;;0.80;0.70;;;27.80;48.40;;;;;;4955661;29;20458;-73
2022/07/06 15:01:38;;;;;;;0.90;0.70;;;27.90;47.80;;;;;;4955367;29;20482;-73
2022/07/06 15:04:05;;;;;;;0.93;0.70;;;28.00;48.10;;;;;;4955548;29;20451;-73
2022/07/06 15:06:33;;;;;;;1.27;0.60;;;28.00;48.10;;;;;;4955502;29;20455;-70
2022/07/06 15:09:00;;;;;;;1.30;0.70;;;28.00;48.20;;;;;;4955491;29;20455;-73
2022/07/06 15:11:27;;;;;;;0.70;0.60;;;28.00;48.10;;;;;;4955316;29;20494;-73
2022/07/06 15:13:54;;;;;;;0.70;0.60;;;28.00;48.00;;;;;;4955434;29;20451;-71
2022/07/06 15:16:20;;;;;;;0.80;0.67;;;28.10;48.50;;;;;;4956889;28;20572;-72
2022/07/06 15:18:47;;;;;;;0.70;0.57;;;28.20;46.70;;;;;;4955337;29;20504;-73
2022/07/06 15:21:14;;;;;;;0.80;0.60;;;28.10;47.10;;;;;;4955656;29;20474;-72
2022/07/06 15:23:42;;;;;;;0.70;0.50;;;28.00;46.50;;;;;;4955141;29;20858;-74
2022/07/06 15:26:09;;;;;;;0.80;0.60;;;28.00;47.10;;;;;;4955047;29;20933;-73
2022/07/06 15:28:36;;;;;;;0.70;0.60;;;27.90;47.20;;;;;;4955258;29;20506;-73
2022/07/06 15:31:02;;;;;;;0.70;0.60;;;27.70;47.10;;;;;;4955081;29;20495;-73
2022/07/06 15:33:29;;;;;;;0.83;0.80;;;27.50;47.10;;;;;;4955475;29;20450;-74
2022/07/06 15:35:56;;;;;;;0.70;0.60;;;27.60;47.20;;;;;;4955199;29;20454;-73
2022/07/06 15:38:23;;;;;;;0.90;0.77;;;27.80;46.40;;;;;;4954835;29;20855;-73
2022/07/06 15:40:55;;;;;;;0.70;0.53;;;27.70;47.20;;;;;;4955145;28;20525;-73
2022/07/06 15:43:21;;;;;;;0.67;0.50;;;27.70;46.40;;;;;;4955484;29;20470;-72
2022/07/06 15:45:48;;;;;;;0.70;0.60;;;27.50;46.60;;;;;;4955271;29;20455;-73
2022/07/06 15:48:15;;;;;;;0.80;0.80;;;27.30;47.40;;;;;;4955030;29;20451;-72
2022/07/06 15:50:41;;;;;;;1.70;0.70;;;27.20;48.00;;;;;;4954778;29;20483;-73
2022/07/06 15:53:08;;;;;;;0.70;0.60;;;27.30;48.20;;;;;;4955056;29;20454;-73
2022/07/06 15:55:35;;;;;;;0.70;0.60;;;27.30;47.50;;;;;;4955670;28;20446;-73
2022/07/06 15:58:03;;;;;;;0.70;0.60;;;27.20;48.20;;;;;;4959031;29;20506;-73